Time;durP1;ratioP1;P1;durP2;ratioP2;P2;SDS_P1;SDS_P2;PMS_P1;PMS_P2;Temp;Humidity;BMP_temperature;BMP_pressure;BME280_temperature;BME280_humidity;BME280_pressure;Samples;Min_cycle;Max_cycle;Signal;HPM_P1;HPM_P2
2020/12/16 00:00:42;;;;;;;20.27;8.32;;;9.50;99.90;;;;;;5056883;28;20027;-86
2020/12/16 00:03:08;;;;;;;24.85;8.55;;;9.40;99.90;;;;;;5057935;28;20474;-83
2020/12/16 00:05:34;;;;;;;18.30;8.52;;;9.40;99.90;;;;;;5056554;28;20064;-82
2020/12/16 00:07:59;;;;;;;16.45;8.30;;;9.40;99.90;;;;;;5056827;28;20553;-81
2020/12/16 00:10:25;;;;;;;21.50;8.60;;;9.40;99.90;;;;;;5052708;28;20052;-82
2020/12/16 00:12:50;;;;;;;19.02;9.18;;;9.40;99.90;;;;;;5046610;28;20025;-83
2020/12/16 00:15:16;;;;;;;16.90;7.93;;;9.50;99.90;;;;;;5047063;28;20037;-83
2020/12/16 00:17:42;;;;;;;21.02;8.40;;;9.50;99.90;;;;;;5046303;28;20047;-81
2020/12/16 00:20:08;;;;;;;20.40;7.40;;;9.50;99.90;;;;;;5046181;28;20097;-82
2020/12/16 00:22:41;;;;;;;20.13;8.02;;;9.40;99.90;;;;;;5045916;28;20025;-81
2020/12/16 00:25:08;;;;;;;20.35;8.50;;;9.40;99.90;;;;;;5045964;28;20459;-82
2020/12/16 00:27:35;;;;;;;20.13;9.15;;;9.40;99.90;;;;;;5045940;28;20103;-82
2020/12/16 00:30:00;;;;;;;24.92;9.60;;;9.50;99.90;;;;;;5045776;28;20092;-83
2020/12/16 00:32:26;;;;;;;17.00;7.18;;;9.40;99.90;;;;;;5045748;28;20025;-83
2020/12/16 00:34:52;;;;;;;16.85;7.57;;;9.40;99.90;;;;;;5045671;28;20488;-81
2020/12/16 00:37:18;;;;;;;16.63;7.97;;;9.40;99.90;;;;;;5045850;28;20021;-83
2020/12/16 00:39:43;;;;;;;16.08;7.30;;;9.40;99.90;;;;;;5045697;28;20018;-84
2020/12/16 00:42:09;;;;;;;18.42;8.52;;;9.40;99.90;;;;;;5045712;28;20026;-82
2020/12/16 00:44:35;;;;;;;17.95;8.10;;;9.40;99.90;;;;;;5045512;28;20026;-82
2020/12/16 00:47:00;;;;;;;19.60;7.95;;;9.40;99.90;;;;;;5045382;28;20021;-81
2020/12/16 00:49:26;;;;;;;22.20;8.35;;;9.40;99.90;;;;;;5045346;28;20025;-82
2020/12/16 00:51:55;;;;;;;18.00;8.15;;;9.40;99.90;;;;;;5045174;28;20018;-83
2020/12/16 00:54:21;;;;;;;15.35;7.35;;;9.40;99.90;;;;;;5045334;28;20022;-81
2020/12/16 00:56:46;;;;;;;26.20;9.13;;;9.40;99.90;;;;;;5045541;28;20097;-83
2020/12/16 00:59:12;;;;;;;21.20;9.13;;;9.40;99.90;;;;;;5045266;28;20089;-82
2020/12/16 01:01:39;;;;;;;13.63;6.38;;;9.30;99.90;;;;;;5045166;28;20470;-82
2020/12/16 01:04:04;;;;;;;15.43;6.82;;;9.30;99.90;;;;;;5044757;28;20175;-82
2020/12/16 01:06:30;;;;;;;18.38;7.13;;;9.30;99.90;;;;;;5044899;28;20021;-82
2020/12/16 01:08:55;;;;;;;15.00;7.22;;;9.30;99.90;;;;;;5045174;28;20021;-81
2020/12/16 01:11:21;;;;;;;19.27;6.85;;;9.30;99.90;;;;;;5044990;28;20026;-81
2020/12/16 01:13:46;;;;;;;13.27;6.50;;;9.30;99.90;;;;;;5044938;28;20025;-83
2020/12/16 01:16:13;;;;;;;17.05;7.78;;;9.30;99.90;;;;;;5044991;28;20490;-80
2020/12/16 01:18:39;;;;;;;18.38;6.30;;;9.30;99.90;;;;;;5045055;28;20029;-82
2020/12/16 01:21:04;;;;;;;15.43;6.35;;;9.30;99.90;;;;;;5044934;28;20040;-83
2020/12/16 01:23:30;;;;;;;19.90;7.15;;;9.30;99.90;;;;;;5043915;28;20022;-81
2020/12/16 01:25:55;;;;;;;19.33;7.93;;;9.30;99.90;;;;;;5044611;28;20021;-82
2020/12/16 01:28:21;;;;;;;17.10;7.35;;;9.30;99.90;;;;;;5045878;28;20100;-82
2020/12/16 01:30:47;;;;;;;18.20;5.72;;;9.30;99.90;;;;;;5044767;28;20025;-80
2020/12/16 01:33:13;;;;;;;15.75;7.07;;;9.30;99.90;;;;;;5045816;28;20504;-84
2020/12/16 01:35:38;;;;;;;24.55;7.88;;;9.30;99.90;;;;;;5045950;28;20093;-84
2020/12/16 01:38:04;;;;;;;17.40;6.97;;;9.30;99.90;;;;;;5045670;28;20056;-81
2020/12/16 01:40:30;;;;;;;13.70;6.40;;;9.30;99.90;;;;;;5044460;28;20026;-80
2020/12/16 01:42:55;;;;;;;22.70;8.10;;;9.20;99.90;;;;;;5045802;28;20017;-80
2020/12/16 01:45:23;;;;;;;15.88;6.75;;;9.20;99.90;;;;;;5044336;28;20030;-81
2020/12/16 01:47:49;;;;;;;18.10;6.85;;;9.20;99.90;;;;;;5044402;28;20116;-81
2020/12/16 01:50:15;;;;;;;15.85;7.25;;;9.20;99.90;;;;;;5044375;28;20018;-84
2020/12/16 01:52:41;;;;;;;16.48;8.82;;;9.20;99.90;;;;;;5044475;28;20043;-82
2020/12/16 01:55:09;;;;;;;16.10;7.20;;;9.20;99.90;;;;;;5044109;28;20045;-80
2020/12/16 01:57:37;;;;;;;13.80;6.13;;;9.30;99.90;;;;;;5044134;28;20352;-82
2020/12/16 02:00:12;;;;;;;17.30;7.07;;;9.30;99.90;;;;;;5043933;28;20060;-80
2020/12/16 02:02:42;;;;;;;16.88;7.93;;;9.30;99.90;;;;;;5044318;28;20557;-79
2020/12/16 02:05:12;;;;;;;14.45;7.57;;;9.30;99.90;;;;;;5043999;28;20038;-82
2020/12/16 02:07:38;;;;;;;13.50;6.10;;;9.30;99.90;;;;;;5044193;28;20025;-81
2020/12/16 02:10:04;;;;;;;17.33;6.93;;;9.30;99.90;;;;;;5045180;28;20805;-82
2020/12/16 02:12:34;;;;;;;12.88;6.28;;;9.30;99.90;;;;;;5043903;28;20018;-79
2020/12/16 02:15:00;;;;;;;15.82;6.10;;;9.40;99.90;;;;;;5043981;28;20083;-83
2020/12/16 02:17:26;;;;;;;14.18;6.30;;;9.30;99.90;;;;;;5043872;28;20045;-82
2020/12/16 02:19:58;;;;;;;13.82;6.72;;;9.30;99.90;;;;;;5045806;28;20037;-82
2020/12/16 02:22:24;;;;;;;20.65;6.95;;;9.30;99.90;;;;;;5045135;28;20025;-81
2020/12/16 02:25:10;;;;;;;13.38;7.50;;;9.30;99.90;;;;;;5043517;28;20032;-83
2020/12/16 02:27:38;;;;;;;14.93;6.90;;;9.30;99.90;;;;;;5043689;28;20449;-82
2020/12/16 02:30:06;;;;;;;13.80;6.63;;;9.30;99.90;;;;;;5043506;28;20097;-81
2020/12/16 02:32:32;;;;;;;22.20;7.88;;;9.30;99.90;;;;;;5044737;28;20036;-82
2020/12/16 02:34:57;;;;;;;16.70;7.10;;;9.30;99.90;;;;;;5043244;28;20037;-81
2020/12/16 02:37:24;;;;;;;14.18;6.32;;;9.30;99.90;;;;;;5043566;28;20017;-81
2020/12/16 02:39:50;;;;;;;15.20;5.95;;;9.30;99.90;;;;;;5043600;28;20033;-81
2020/12/16 02:42:28;;;;;;;13.13;5.72;;;9.30;99.90;;;;;;5043636;28;20071;-82
2020/12/16 02:44:57;;;;;;;14.98;5.65;;;9.30;99.90;;;;;;5045132;28;20420;-81
2020/12/16 02:47:22;;;;;;;13.57;5.85;;;9.20;99.90;;;;;;5043039;28;20485;-81
2020/12/16 02:49:48;;;;;;;11.73;6.50;;;9.20;99.90;;;;;;5043351;28;20022;-80
2020/12/16 02:52:14;;;;;;;9.15;4.60;;;9.20;99.90;;;;;;5044801;28;20025;-82
2020/12/16 02:54:40;;;;;;;15.07;5.88;;;9.20;99.90;;;;;;5043507;28;20010;-81
2020/12/16 02:57:05;;;;;;;12.90;5.57;;;9.10;99.90;;;;;;5043297;28;20045;-80
2020/12/16 02:59:31;;;;;;;15.15;5.47;;;9.10;99.90;;;;;;5043045;28;20040;-82
2020/12/16 03:01:57;;;;;;;8.52;5.43;;;9.10;99.90;;;;;;5043220;28;20032;-81
2020/12/16 03:04:24;;;;;;;14.65;5.35;;;9.10;99.90;;;;;;5043031;28;20105;-80
2020/12/16 03:06:52;;;;;;;10.55;5.13;;;9.00;99.90;;;;;;5043106;28;20373;-79
2020/12/16 03:09:23;;;;;;;9.93;4.05;;;9.10;99.90;;;;;;5042945;28;20085;-78
2020/12/16 03:11:54;;;;;;;10.35;4.93;;;9.10;99.90;;;;;;5044384;28;20040;-80
2020/12/16 03:14:20;;;;;;;12.77;5.43;;;9.10;99.90;;;;;;5044447;28;20021;-80
2020/12/16 03:16:45;;;;;;;14.43;5.80;;;9.10;99.90;;;;;;5044123;28;20037;-80
2020/12/16 03:19:11;;;;;;;13.65;5.80;;;9.10;99.90;;;;;;5043247;28;20053;-83
2020/12/16 03:21:37;;;;;;;15.23;5.88;;;9.10;99.90;;;;;;5043315;28;20025;-79
2020/12/16 03:24:03;;;;;;;17.73;6.28;;;9.10;99.90;;;;;;5043187;28;20580;-82
2020/12/16 03:26:29;;;;;;;9.75;5.35;;;9.10;99.90;;;;;;5045132;28;20026;-80
2020/12/16 03:28:54;;;;;;;20.25;6.25;;;9.10;99.90;;;;;;5043537;28;20021;-78
2020/12/16 03:31:20;;;;;;;11.02;5.13;;;9.00;99.90;;;;;;5043541;28;20028;-80
2020/12/16 03:33:47;;;;;;;12.98;5.70;;;9.00;99.90;;;;;;5047139;28;20028;-79
2020/12/16 03:36:18;;;;;;;12.98;6.15;;;9.00;99.90;;;;;;5044471;28;20029;-81
2020/12/16 03:38:45;;;;;;;10.30;6.05;;;9.10;99.90;;;;;;5043071;28;20021;-81
2020/12/16 03:41:15;;;;;;;8.93;5.72;;;9.00;99.90;;;;;;5043179;28;20026;-80
2020/12/16 03:43:45;;;;;;;17.75;5.97;;;9.00;99.90;;;;;;5042851;28;20053;-79
2020/12/16 03:46:11;;;;;;;12.60;7.13;;;9.00;99.90;;;;;;5042790;28;20034;-79
2020/12/16 03:48:38;;;;;;;15.70;6.10;;;9.00;99.90;;;;;;5046401;28;20047;-79
2020/12/16 03:51:06;;;;;;;14.60;6.25;;;9.00;99.90;;;;;;5047784;28;20017;-79
2020/12/16 03:53:34;;;;;;;16.42;6.22;;;9.00;99.90;;;;;;5046432;28;20026;-77
2020/12/16 03:56:13;;;;;;;15.35;7.28;;;9.00;99.90;;;;;;5047480;28;20060;-80
2020/12/16 03:58:47;;;;;;;17.17;7.28;;;8.90;99.90;;;;;;5046870;28;20112;-78
2020/12/16 04:01:15;;;;;;;17.60;7.37;;;8.90;99.90;;;;;;5046475;28;20067;-78
2020/12/16 04:03:42;;;;;;;15.05;7.35;;;8.90;99.90;;;;;;5046396;28;20029;-79
2020/12/16 04:06:10;;;;;;;16.60;7.78;;;8.90;99.90;;;;;;5047693;28;20115;-79
2020/12/16 04:08:37;;;;;;;14.93;7.57;;;8.90;99.90;;;;;;5047495;28;20010;-78
2020/12/16 04:11:07;;;;;;;16.08;6.75;;;8.90;99.90;;;;;;5045963;28;20021;-77
2020/12/16 04:13:33;;;;;;;14.95;5.40;;;8.80;99.90;;;;;;5047593;28;20098;-79
2020/12/16 04:15:59;;;;;;;12.65;5.60;;;8.90;99.90;;;;;;5045820;28;20477;-80
2020/12/16 04:18:24;;;;;;;14.48;6.00;;;8.80;99.90;;;;;;5046146;28;20021;-78
2020/12/16 04:20:50;;;;;;;14.38;6.80;;;8.80;99.90;;;;;;5045919;28;20454;-80
2020/12/16 04:23:16;;;;;;;14.73;5.90;;;8.80;99.90;;;;;;5045856;28;20022;-78
2020/12/16 04:25:42;;;;;;;15.50;5.72;;;8.80;99.90;;;;;;5047312;28;20021;-81
2020/12/16 04:28:08;;;;;;;15.45;6.78;;;8.90;99.90;;;;;;5046021;28;20033;-79
2020/12/16 04:30:33;;;;;;;27.02;7.32;;;8.80;99.90;;;;;;5045801;28;20343;-79
2020/12/16 04:32:59;;;;;;;20.15;7.57;;;8.80;99.90;;;;;;5045768;28;20083;-78
2020/12/16 04:35:26;;;;;;;13.60;6.07;;;8.80;99.90;;;;;;5045447;28;20044;-78
2020/12/16 04:37:53;;;;;;;19.55;5.97;;;8.80;99.90;;;;;;5045503;28;20022;-79
2020/12/16 04:40:21;;;;;;;14.13;6.85;;;8.70;99.90;;;;;;5045479;28;20074;-79
2020/12/16 04:43:03;;;;;;;20.63;6.70;;;8.80;99.90;;;;;;5045484;28;20029;-78
2020/12/16 04:45:29;;;;;;;14.43;7.78;;;8.70;99.90;;;;;;5045529;28;20052;-77
2020/12/16 04:47:56;;;;;;;15.95;6.68;;;8.70;99.90;;;;;;5046540;28;20028;-78
2020/12/16 04:50:23;;;;;;;12.35;6.32;;;8.70;99.90;;;;;;5046658;28;20025;-78
2020/12/16 04:52:50;;;;;;;14.20;5.50;;;8.70;99.90;;;;;;5046645;28;20528;-79
2020/12/16 04:55:17;;;;;;;16.17;6.28;;;8.70;99.90;;;;;;5046489;28;20033;-81
2020/12/16 04:57:52;;;;;;;17.75;6.88;;;8.70;99.90;;;;;;5045095;28;20049;-80
2020/12/16 05:00:23;;;;;;;14.88;6.43;;;8.70;99.90;;;;;;5045347;28;20025;-78
2020/12/16 05:02:54;;;;;;;13.68;6.80;;;8.60;99.90;;;;;;5045280;28;20021;-80
2020/12/16 05:05:20;;;;;;;12.60;6.60;;;8.60;99.90;;;;;;5044848;28;20095;-79
2020/12/16 05:07:48;;;;;;;11.27;5.93;;;8.60;99.90;;;;;;5046537;28;20021;-78
2020/12/16 05:10:15;;;;;;;12.80;6.88;;;8.60;99.90;;;;;;5045043;28;20129;-80
2020/12/16 05:12:42;;;;;;;13.43;5.72;;;8.60;99.90;;;;;;5045308;28;20379;-79
2020/12/16 05:15:22;;;;;;;16.48;7.85;;;8.50;99.90;;;;;;5044939;28;20072;-81
2020/12/16 05:18:03;;;;;;;13.65;6.25;;;8.50;99.90;;;;;;5046156;28;20025;-78
2020/12/16 05:20:29;;;;;;;10.85;5.95;;;8.50;99.90;;;;;;5046216;28;20101;-78
2020/12/16 05:22:59;;;;;;;12.90;5.93;;;8.50;99.90;;;;;;5044773;28;20072;-79
2020/12/16 05:25:25;;;;;;;12.82;6.40;;;8.50;99.90;;;;;;5044799;28;20021;-77
2020/12/16 05:27:51;;;;;;;13.20;7.10;;;8.50;99.90;;;;;;5046024;28;20056;-78
2020/12/16 05:30:17;;;;;;;12.70;6.55;;;8.50;99.90;;;;;;5045902;28;20470;-79
2020/12/16 05:32:43;;;;;;;14.68;6.22;;;8.50;99.90;;;;;;5044732;28;20025;-79
2020/12/16 05:35:36;;;;;;;19.13;7.05;;;8.50;99.90;;;;;;5046126;28;20084;-78
2020/12/16 05:38:04;;;;;;;16.50;6.53;;;8.40;99.90;;;;;;5044378;28;20033;-78
2020/12/16 05:40:30;;;;;;;19.15;6.70;;;8.40;99.90;;;;;;5044305;28;20018;-76
2020/12/16 05:42:56;;;;;;;14.13;5.88;;;8.40;99.90;;;;;;5045779;28;20025;-78
2020/12/16 05:45:24;;;;;;;15.07;5.88;;;8.40;99.90;;;;;;5045509;28;20530;-78
2020/12/16 05:48:05;;;;;;;13.98;5.78;;;8.40;99.90;;;;;;5045593;28;20021;-78
2020/12/16 05:50:37;;;;;;;16.10;6.63;;;8.40;99.90;;;;;;5045642;28;20032;-80
2020/12/16 05:53:14;;;;;;;14.25;6.43;;;8.40;99.90;;;;;;5045560;28;20429;-77
2020/12/16 05:55:42;;;;;;;13.20;6.15;;;8.40;99.90;;;;;;5043946;28;20393;-79
2020/12/16 05:58:16;;;;;;;11.23;5.63;;;8.30;99.90;;;;;;5044244;28;20034;-76
2020/12/16 06:00:44;;;;;;;12.88;5.60;;;8.30;99.90;;;;;;5045782;28;20115;-80
2020/12/16 06:03:16;;;;;;;11.63;5.22;;;8.30;99.90;;;;;;5045453;28;20025;-79
2020/12/16 06:05:46;;;;;;;22.27;7.35;;;8.20;99.90;;;;;;5044023;28;20073;-80
2020/12/16 06:08:11;;;;;;;13.73;6.40;;;8.20;99.90;;;;;;5044057;28;20059;-81
2020/12/16 06:10:42;;;;;;;14.27;6.00;;;8.20;99.90;;;;;;5043421;28;20017;-78
2020/12/16 06:13:12;;;;;;;12.18;5.53;;;8.10;99.90;;;;;;5044279;28;20032;-78
2020/12/16 06:15:47;;;;;;;11.75;4.22;;;8.10;99.90;;;;;;5044906;28;20466;-77
2020/12/16 06:18:16;;;;;;;19.92;5.53;;;8.00;99.90;;;;;;5044967;28;20021;-78
2020/12/16 06:20:42;;;;;;;10.98;4.35;;;8.00;99.90;;;;;;5043944;28;20068;-78
2020/12/16 06:23:42;;;;;;;17.45;5.50;;;7.90;99.90;;;;;;5043798;28;20025;-77
2020/12/16 06:26:17;;;;;;;8.65;4.53;;;7.90;99.90;;;;;;5043814;28;20037;-79
2020/12/16 06:28:43;;;;;;;;;;;7.80;99.90;;;;;;5043586;28;20048;-79
2020/12/16 06:31:12;;;;;;;13.10;5.90;;;7.80;99.90;;;;;;5043224;28;19904;-79
2020/12/16 06:33:58;;;;;;;9.50;5.20;;;7.80;99.90;;;;;;5043546;28;20033;-80
2020/12/16 06:36:27;;;;;;;12.65;4.95;;;7.70;99.90;;;;;;5043379;28;20037;-80
2020/12/16 06:38:53;;;;;;;8.93;4.93;;;7.70;99.90;;;;;;5043283;28;20022;-79
2020/12/16 06:41:20;;;;;;;12.05;4.55;;;7.60;99.90;;;;;;5045169;28;20026;-79
2020/12/16 06:43:48;;;;;;;9.20;4.63;;;7.60;99.90;;;;;;5043499;28;20458;-81
2020/12/16 06:46:30;;;;;;;14.10;5.57;;;7.60;99.90;;;;;;5043325;28;20017;-80
2020/12/16 06:48:59;;;;;;;6.80;3.88;;;7.60;99.90;;;;;;5043120;28;20056;-79
2020/12/16 06:51:27;;;;;;;16.17;4.63;;;7.50;99.90;;;;;;5043031;28;20064;-79
2020/12/16 06:54:14;;;;;;;11.75;5.47;;;7.50;99.90;;;;;;5044012;28;20021;-80
2020/12/16 06:56:40;;;;;;;13.38;5.05;;;7.40;99.90;;;;;;5044409;28;20038;-79
2020/12/16 06:59:07;;;;;;;10.38;4.60;;;7.40;99.90;;;;;;5043759;28;20013;-79
2020/12/16 07:01:33;;;;;;;8.15;4.00;;;7.30;99.90;;;;;;5042647;28;20037;-79
2020/12/16 07:03:59;;;;;;;10.68;5.18;;;7.20;99.90;;;;;;5042419;28;20500;-80
2020/12/16 07:06:28;;;;;;;16.52;5.25;;;7.20;99.90;;;;;;5044044;28;20049;-80
2020/12/16 07:09:12;;;;;;;12.00;5.40;;;7.20;99.90;;;;;;5042642;28;20022;-81
2020/12/16 07:11:39;;;;;;;17.98;6.82;;;7.10;99.90;;;;;;5042612;28;20018;-80
2020/12/16 07:14:10;;;;;;;10.75;5.15;;;7.10;99.90;;;;;;5042468;28;20025;-80
2020/12/16 07:16:36;;;;;;;12.93;6.25;;;7.00;99.90;;;;;;5042755;28;20079;-79
2020/12/16 07:19:02;;;;;;;12.40;4.93;;;7.00;99.90;;;;;;5042771;28;20037;-79
2020/12/16 07:21:31;;;;;;;12.18;4.65;;;7.00;99.90;;;;;;5043356;28;20122;-80
2020/12/16 07:24:15;;;;;;;10.05;5.82;;;6.90;99.90;;;;;;5046039;28;20025;-79
2020/12/16 07:26:53;;;;;;;9.38;4.93;;;6.90;99.90;;;;;;5046728;28;20464;-81
2020/12/16 07:29:31;;;;;;;10.13;4.03;;;6.90;99.90;;;;;;5046716;28;20033;-79
2020/12/16 07:32:07;;;;;;;12.43;5.55;;;6.80;99.90;;;;;;5048022;28;20024;-81
2020/12/16 07:34:43;;;;;;;11.90;5.50;;;6.80;99.90;;;;;;5046815;28;20044;-79
2020/12/16 07:37:09;;;;;;;12.38;5.40;;;6.90;99.90;;;;;;5048320;28;20440;-80
2020/12/16 07:39:44;;;;;;;16.48;6.32;;;6.80;99.90;;;;;;5046424;28;20112;-80
2020/12/16 07:42:10;;;;;;;11.00;4.80;;;6.70;99.90;;;;;;5048022;28;20029;-81
2020/12/16 07:44:43;;;;;;;12.25;6.00;;;6.60;99.90;;;;;;5046604;28;20029;-79
2020/12/16 07:47:09;;;;;;;11.18;4.90;;;6.70;99.90;;;;;;5046914;28;20013;-80
2020/12/16 07:49:39;;;;;;;10.60;5.50;;;6.80;99.90;;;;;;5047638;28;20032;-78
2020/12/16 07:52:04;;;;;;;8.95;4.53;;;6.60;99.90;;;;;;5046720;28;20104;-80
2020/12/16 07:54:31;;;;;;;11.38;5.45;;;6.60;99.90;;;;;;5048418;28;20113;-80
2020/12/16 07:56:56;;;;;;;9.20;4.78;;;6.60;99.90;;;;;;5046282;28;20123;-81
2020/12/16 07:59:28;;;;;;;13.85;6.25;;;6.60;99.90;;;;;;5046188;28;20347;-80
2020/12/16 08:02:02;;;;;;;13.90;5.57;;;6.50;99.90;;;;;;5047637;28;20021;-81
2020/12/16 08:04:28;;;;;;;14.75;5.57;;;6.60;99.90;;;;;;5047440;28;20042;-80
2020/12/16 08:06:53;;;;;;;17.00;5.53;;;6.50;99.90;;;;;;5046053;28;20489;-81
2020/12/16 08:09:22;;;;;;;17.60;5.90;;;6.60;99.90;;;;;;5046386;28;20024;-82
2020/12/16 08:11:48;;;;;;;12.48;5.72;;;6.70;99.90;;;;;;5044492;28;20147;-82
2020/12/16 08:14:17;;;;;;;7.80;4.45;;;6.80;99.90;;;;;;5045217;28;20041;-81
2020/12/16 08:16:44;;;;;;;13.27;5.13;;;7.00;99.90;;;;;;5045557;28;20037;-83
2020/12/16 08:19:18;;;;;;;12.88;5.63;;;7.30;99.90;;;;;;5045889;28;20044;-80
2020/12/16 08:21:49;;;;;;;11.85;5.60;;;7.40;99.90;;;;;;5045927;28;20064;-80
2020/12/16 08:24:15;;;;;;;10.27;4.97;;;7.70;99.90;;;;;;5046133;28;20029;-82
2020/12/16 08:26:40;;;;;;;10.88;4.63;;;8.00;99.90;;;;;;5047007;28;20025;-81
2020/12/16 08:29:06;;;;;;;16.48;4.60;;;8.10;99.90;;;;;;5046004;28;20049;-81
2020/12/16 08:31:34;;;;;;;7.35;4.30;;;8.30;99.90;;;;;;5045690;28;20480;-80
2020/12/16 08:34:01;;;;;;;11.13;5.18;;;8.30;99.90;;;;;;5045359;28;20462;-79
2020/12/16 08:36:27;;;;;;;10.35;5.60;;;8.30;99.90;;;;;;5045605;28;20030;-80
2020/12/16 08:38:54;;;;;;;12.00;5.07;;;8.40;99.90;;;;;;5045370;28;20027;-78
2020/12/16 08:41:27;;;;;;;9.00;5.38;;;8.40;99.90;;;;;;5045045;28;20017;-80
2020/12/16 08:43:54;;;;;;;17.20;6.25;;;8.50;99.90;;;;;;5045298;28;20085;-81
2020/12/16 08:46:25;;;;;;;12.60;5.70;;;8.40;99.90;;;;;;5045037;28;20436;-79
2020/12/16 08:49:01;;;;;;;12.02;5.25;;;8.30;99.90;;;;;;5046475;28;20079;-79
2020/12/16 08:51:36;;;;;;;8.43;4.47;;;8.30;99.90;;;;;;5046547;28;20017;-78
2020/12/16 08:54:07;;;;;;;11.30;4.82;;;8.40;99.90;;;;;;5045405;28;20029;-79
2020/12/16 08:56:56;;;;;;;10.18;5.05;;;8.50;99.90;;;;;;5045037;28;20436;-79
2020/12/16 08:59:22;;;;;;;9.75;4.88;;;8.70;99.90;;;;;;5043850;28;20022;-79
2020/12/16 09:01:55;;;;;;;10.90;5.97;;;8.80;99.90;;;;;;5044821;28;20052;-79
2020/12/16 09:04:56;;;;;;;13.43;6.18;;;8.90;99.90;;;;;;5045565;28;20398;-77
2020/12/16 09:07:24;;;;;;;10.40;5.15;;;9.00;99.90;;;;;;5040992;28;20106;-78
2020/12/16 09:09:50;;;;;;;12.27;5.05;;;9.10;99.90;;;;;;5046262;28;20022;-79
2020/12/16 09:12:19;;;;;;;11.07;5.25;;;9.30;99.90;;;;;;5045021;28;20028;-79
2020/12/16 09:14:49;;;;;;;11.52;5.53;;;9.40;99.90;;;;;;5044759;28;20052;-79
2020/12/16 09:17:15;;;;;;;11.00;4.68;;;9.40;99.90;;;;;;5044644;28;20026;-79
2020/12/16 09:19:43;;;;;;;11.10;5.18;;;9.10;99.90;;;;;;5046169;28;20029;-81
2020/12/16 09:22:09;;;;;;;6.97;2.97;;;8.70;99.90;;;;;;5044878;28;20116;-78
2020/12/16 09:24:37;;;;;;;11.15;4.97;;;8.30;99.90;;;;;;5050148;28;20484;-80
2020/12/16 09:27:12;;;;;;;12.02;5.05;;;8.00;99.90;;;;;;5052382;28;20032;-80
2020/12/16 09:29:46;;;;;;;10.63;4.50;;;7.60;99.90;;;;;;5055219;28;20064;-78
2020/12/16 09:32:16;;;;;;;;;;;7.40;99.90;;;;;;5044870;28;20030;-78
2020/12/16 09:34:47;;;;;;;17.17;4.35;;;7.10;99.90;;;;;;5045706;28;19901;-78
2020/12/16 09:37:18;;;;;;;122.57;6.95;;;7.00;99.90;;;;;;5044462;28;20025;-79
2020/12/16 09:39:49;;;;;;;54.00;4.93;;;6.90;99.90;;;;;;5045598;28;20029;-79
2020/12/16 09:42:19;;;;;;;19.15;4.78;;;6.80;99.90;;;;;;5044473;28;20029;-78
2020/12/16 09:44:45;;;;;;;8.98;4.25;;;6.70;99.90;;;;;;5043514;28;20049;-78
2020/12/16 09:47:17;;;;;;;15.98;3.42;;;6.60;99.90;;;;;;5044334;28;20025;-79
2020/12/16 09:49:45;;;;;;;10.75;4.90;;;6.60;99.90;;;;;;5044523;28;20034;-79
2020/12/16 09:52:28;;;;;;;18.30;4.07;;;6.60;99.90;;;;;;5045912;28;20045;-80
2020/12/16 09:54:54;;;;;;;9.57;4.50;;;6.60;99.90;;;;;;5047092;28;20026;-78
2020/12/16 09:57:21;;;;;;;7.50;4.38;;;6.70;99.90;;;;;;5048794;28;20373;-78
2020/12/16 09:59:47;;;;;;;8.52;4.10;;;6.60;99.90;;;;;;5045658;28;20025;-79
2020/12/16 10:02:12;;;;;;;19.10;5.13;;;6.60;99.90;;;;;;5044339;28;20045;-80
2020/12/16 10:04:38;;;;;;;9.65;3.90;;;6.60;99.90;;;;;;5044188;28;20541;-77
2020/12/16 10:07:03;;;;;;;24.65;5.40;;;6.60;99.90;;;;;;5045573;28;20021;-77
2020/12/16 10:09:29;;;;;;;16.58;5.90;;;6.60;99.90;;;;;;5043507;28;20056;-79
2020/12/16 10:12:02;;;;;;;9.20;4.72;;;6.60;99.90;;;;;;5045201;28;20009;-79
2020/12/16 10:14:27;;;;;;;13.10;6.22;;;6.50;99.90;;;;;;5043936;28;20067;-78
2020/12/16 10:16:53;;;;;;;14.15;5.13;;;6.60;99.90;;;;;;5044751;28;20485;-79
2020/12/16 10:19:18;;;;;;;28.00;5.38;;;6.70;99.90;;;;;;5043553;28;20025;-80
2020/12/16 10:21:48;;;;;;;9.27;5.32;;;6.70;99.90;;;;;;5045140;28;20031;-79
2020/12/16 10:24:18;;;;;;;8.55;4.85;;;6.70;99.90;;;;;;5041976;28;20033;-80
2020/12/16 10:27:01;;;;;;;28.35;6.22;;;6.70;99.90;;;;;;5041458;28;20045;-80
2020/12/16 10:29:28;;;;;;;8.47;3.93;;;6.80;99.90;;;;;;5043062;28;20036;-78
2020/12/16 10:31:54;;;;;;;18.30;5.28;;;6.90;99.90;;;;;;5041846;28;20025;-80
2020/12/16 10:34:19;;;;;;;12.93;5.85;;;6.90;99.90;;;;;;5043928;28;20073;-80
2020/12/16 10:36:52;;;;;;;19.00;5.47;;;6.90;99.90;;;;;;5043107;28;20041;-80
2020/12/16 10:39:21;;;;;;;37.08;6.00;;;6.90;99.90;;;;;;5042546;28;20021;-78
2020/12/16 10:41:57;;;;;;;17.00;6.82;;;6.90;99.90;;;;;;5043250;28;20534;-79
2020/12/16 10:44:23;;;;;;;32.78;6.85;;;7.00;99.90;;;;;;5043249;28;20053;-78
2020/12/16 10:46:54;;;;;;;12.85;6.05;;;7.00;99.90;;;;;;5044246;28;20029;-80
2020/12/16 10:49:21;;;;;;;16.05;6.22;;;7.10;99.90;;;;;;5044418;28;20067;-77
2020/12/16 10:51:46;;;;;;;23.42;7.03;;;7.10;99.90;;;;;;5043266;28;20422;-75
2020/12/16 10:54:13;;;;;;;14.85;5.20;;;7.20;99.90;;;;;;5044751;28;20032;-79
2020/12/16 10:56:39;;;;;;;10.80;5.82;;;7.20;99.90;;;;;;5042790;28;20068;-77
2020/12/16 10:59:04;;;;;;;13.60;7.40;;;7.30;99.90;;;;;;5042188;28;20085;-77
2020/12/16 11:01:34;;;;;;;14.38;7.00;;;7.30;99.90;;;;;;5042827;28;20092;-78
2020/12/16 11:04:00;;;;;;;16.85;7.32;;;7.40;99.90;;;;;;5042017;28;20052;-77
2020/12/16 11:06:26;;;;;;;13.23;7.25;;;7.50;99.90;;;;;;5044129;28;20018;-79
2020/12/16 11:08:51;;;;;;;36.90;6.68;;;7.50;99.90;;;;;;5043964;28;20068;-78
2020/12/16 11:11:17;;;;;;;12.48;6.65;;;7.50;99.90;;;;;;5042812;28;20022;-78
2020/12/16 11:13:45;;;;;;;18.08;7.00;;;7.50;99.90;;;;;;5042981;28;20021;-78
2020/12/16 11:16:10;;;;;;;17.20;7.78;;;7.60;99.90;;;;;;5042869;28;20044;-77
2020/12/16 11:18:36;;;;;;;22.55;8.35;;;7.70;99.90;;;;;;5042697;28;20029;-77
2020/12/16 11:21:01;;;;;;;21.20;8.00;;;7.70;99.90;;;;;;5042604;28;20388;-76
2020/12/16 11:23:27;;;;;;;19.38;9.05;;;7.70;99.90;;;;;;5043872;28;20058;-77
2020/12/16 11:25:53;;;;;;;16.50;8.40;;;7.80;99.90;;;;;;5042123;28;20021;-77
2020/12/16 11:28:27;;;;;;;16.05;7.85;;;7.80;99.90;;;;;;5044002;28;20030;-77
2020/12/16 11:30:52;;;;;;;;;;;7.90;99.90;;;;;;5042520;28;20049;-77
2020/12/16 11:33:18;;;;;;;24.42;8.88;;;7.90;99.90;;;;;;5043798;28;19901;-77
2020/12/16 11:35:46;;;;;;;19.27;7.40;;;7.90;99.90;;;;;;5043945;28;20034;-78
2020/12/16 11:38:15;;;;;;;20.00;8.25;;;7.90;99.90;;;;;;5049799;28;20029;-78
2020/12/16 11:40:43;;;;;;;19.42;8.30;;;8.00;99.90;;;;;;5062433;28;20052;-77
2020/12/16 11:43:09;;;;;;;19.83;8.77;;;8.10;99.90;;;;;;5062872;28;20033;-77
2020/12/16 11:45:35;;;;;;;23.48;8.50;;;8.10;99.90;;;;;;5062300;28;20039;-77
2020/12/16 11:48:01;;;;;;;17.52;7.93;;;8.10;99.90;;;;;;5062811;28;20108;-77
2020/12/16 11:50:27;;;;;;;20.42;9.27;;;8.20;99.90;;;;;;5063643;28;20025;-76
2020/12/16 11:52:53;;;;;;;15.07;8.63;;;8.20;99.90;;;;;;5064483;28;20047;-77
2020/12/16 11:55:18;;;;;;;20.02;10.13;;;8.40;99.90;;;;;;5060415;28;20037;-78
2020/12/16 11:57:45;;;;;;;15.38;7.78;;;8.50;99.90;;;;;;5062384;28;20044;-78
2020/12/16 12:00:18;;;;;;;17.73;7.75;;;8.50;99.90;;;;;;5063716;28;20033;-77
2020/12/16 12:02:45;;;;;;;18.77;8.57;;;8.60;99.90;;;;;;5062282;28;20032;-79
2020/12/16 12:05:13;;;;;;;16.60;7.60;;;8.60;99.90;;;;;;5061560;28;20167;-77
2020/12/16 12:07:45;;;;;;;16.98;8.52;;;8.70;99.90;;;;;;5063372;28;20032;-77
2020/12/16 12:10:11;;;;;;;12.52;7.18;;;8.80;99.90;;;;;;5067244;28;20028;-77
2020/12/16 12:12:36;;;;;;;21.17;9.63;;;8.90;99.90;;;;;;5065107;28;20093;-78
2020/12/16 12:15:04;;;;;;;13.65;7.72;;;8.90;99.90;;;;;;5063309;28;20038;-77
2020/12/16 12:17:32;;;;;;;18.63;8.65;;;8.90;99.90;;;;;;5064449;28;20029;-76
2020/12/16 12:19:58;;;;;;;14.48;7.53;;;9.10;99.90;;;;;;5064274;28;20052;-76
2020/12/16 12:22:23;;;;;;;15.85;7.03;;;9.70;99.90;;;;;;5065278;28;20389;-76
2020/12/16 12:24:49;;;;;;;14.70;7.90;;;10.30;99.90;;;;;;5066751;28;20461;-76
2020/12/16 12:27:16;;;;;;;13.57;7.03;;;10.90;99.90;;;;;;5066929;28;20441;-78
2020/12/16 12:29:49;;;;;;;17.88;7.40;;;11.50;99.90;;;;;;5066797;28;20020;-77
2020/12/16 12:32:15;;;;;;;14.02;7.38;;;11.90;99.90;;;;;;5066629;28;20057;-77
2020/12/16 12:34:42;;;;;;;11.45;6.43;;;11.70;99.90;;;;;;5062410;28;20037;-75
2020/12/16 12:37:08;;;;;;;15.07;7.63;;;11.40;99.90;;;;;;5055382;28;20069;-77
2020/12/16 12:39:53;;;;;;;12.57;6.72;;;11.30;99.90;;;;;;5060906;28;20075;-78
2020/12/16 12:42:25;;;;;;;;;;;11.00;99.90;;;;;;5065380;28;20075;-79
2020/12/16 12:44:50;;;;;;;10.05;6.38;;;10.70;99.90;;;;;;5064506;28;19971;-77
2020/12/16 12:47:16;;;;;;;9.77;5.63;;;10.50;99.90;;;;;;5064260;28;20021;-76
2020/12/16 12:49:44;;;;;;;16.77;7.32;;;10.30;99.90;;;;;;5065153;28;20461;-77
2020/12/16 12:52:09;;;;;;;14.48;7.07;;;10.30;99.90;;;;;;5065110;28;20040;-77
2020/12/16 12:54:40;;;;;;;12.15;6.57;;;10.30;99.90;;;;;;5065602;28;20029;-79